sensor_id;sensor_type;location;lat;lon;timestamp;temperature;humidity
60234;DHT22;49514;43.538;-5.708;2022-09-27T00:02:13;17.90;99.90
60234;DHT22;49514;43.538;-5.708;2022-09-27T00:04:40;18.00;99.90
60234;DHT22;49514;43.538;-5.708;2022-09-27T00:07:07;18.00;99.90
60234;DHT22;49514;43.538;-5.708;2022-09-27T00:09:36;18.00;99.90
60234;DHT22;49514;43.538;-5.708;2022-09-27T00:12:03;18.10;99.90
60234;DHT22;49514;43.538;-5.708;2022-09-27T00:14:29;18.10;99.90
60234;DHT22;49514;43.538;-5.708;2022-09-27T00:16:56;18.10;99.90
60234;DHT22;49514;43.538;-5.708;2022-09-27T00:19:23;18.10;99.90
60234;DHT22;49514;43.538;-5.708;2022-09-27T00:21:50;18.10;99.90
60234;DHT22;49514;43.538;-5.708;2022-09-27T00:24:21;18.10;99.90
60234;DHT22;49514;43.538;-5.708;2022-09-27T00:26:48;18.10;99.90
60234;DHT22;49514;43.538;-5.708;2022-09-27T00:29:17;18.00;99.90
60234;DHT22;49514;43.538;-5.708;2022-09-27T00:31:44;18.00;99.90
60234;DHT22;49514;43.538;-5.708;2022-09-27T00:34:22;18.00;99.90
60234;DHT22;49514;43.538;-5.708;2022-09-27T00:36:50;18.00;99.90
60234;DHT22;49514;43.538;-5.708;2022-09-27T00:39:17;18.00;99.90
60234;DHT22;49514;43.538;-5.708;2022-09-27T00:41:44;17.90;99.90
60234;DHT22;49514;43.538;-5.708;2022-09-27T00:47:06;17.80;99.90
60234;DHT22;49514;43.538;-5.708;2022-09-27T00:49:52;17.80;99.90
60234;DHT22;49514;43.538;-5.708;2022-09-27T00:52:37;17.80;99.90
60234;DHT22;49514;43.538;-5.708;2022-09-27T00:55:19;17.80;99.90
60234;DHT22;49514;43.538;-5.708;2022-09-27T00:57:48;17.80;99.90
60234;DHT22;49514;43.538;-5.708;2022-09-27T01:00:16;17.80;99.90
60234;DHT22;49514;43.538;-5.708;2022-09-27T01:02:46;17.70;99.90
60234;DHT22;49514;43.538;-5.708;2022-09-27T01:05:17;17.70;99.90
60234;DHT22;49514;43.538;-5.708;2022-09-27T01:07:45;17.60;99.90
60234;DHT22;49514;43.538;-5.708;2022-09-27T01:10:13;17.50;99.90
60234;DHT22;49514;43.538;-5.708;2022-09-27T01:21:09;17.20;99.90
60234;DHT22;49514;43.538;-5.708;2022-09-27T01:24:02;17.20;99.90
60234;DHT22;49514;43.538;-5.708;2022-09-27T01:27:11;17.10;99.90
60234;DHT22;49514;43.538;-5.708;2022-09-27T01:30:14;17.00;99.90
60234;DHT22;49514;43.538;-5.708;2022-09-27T01:35:58;16.90;99.90
60234;DHT22;49514;43.538;-5.708;2022-09-27T01:44:46;16.70;99.90
60234;DHT22;49514;43.538;-5.708;2022-09-27T01:48:09;16.70;99.90
60234;DHT22;49514;43.538;-5.708;2022-09-27T01:50:48;16.70;99.90
60234;DHT22;49514;43.538;-5.708;2022-09-27T01:53:20;16.70;99.90
60234;DHT22;49514;43.538;-5.708;2022-09-27T01:56:18;16.80;99.90
60234;DHT22;49514;43.538;-5.708;2022-09-27T01:59:12;16.80;99.90
60234;DHT22;49514;43.538;-5.708;2022-09-27T02:01:47;16.80;99.90
60234;DHT22;49514;43.538;-5.708;2022-09-27T02:04:20;16.80;99.90
60234;DHT22;49514;43.538;-5.708;2022-09-27T02:07:22;16.70;99.90
60234;DHT22;49514;43.538;-5.708;2022-09-27T02:09:58;16.70;99.90
60234;DHT22;49514;43.538;-5.708;2022-09-27T02:12:48;16.70;99.90
60234;DHT22;49514;43.538;-5.708;2022-09-27T02:15:17;16.70;99.90
60234;DHT22;49514;43.538;-5.708;2022-09-27T02:18:15;16.80;99.90
60234;DHT22;49514;43.538;-5.708;2022-09-27T02:20:51;16.90;99.90
60234;DHT22;49514;43.538;-5.708;2022-09-27T02:26:53;16.80;99.90
60234;DHT22;49514;43.538;-5.708;2022-09-27T02:29:13;16.80;99.90
60234;DHT22;49514;43.538;-5.708;2022-09-27T02:31:48;16.80;99.90
60234;DHT22;49514;43.538;-5.708;2022-09-27T02:34:23;16.70;99.90
60234;DHT22;49514;43.538;-5.708;2022-09-27T02:36:51;16.70;99.90
60234;DHT22;49514;43.538;-5.708;2022-09-27T02:39:20;16.70;99.90
60234;DHT22;49514;43.538;-5.708;2022-09-27T02:41:50;16.80;99.90
60234;DHT22;49514;43.538;-5.708;2022-09-27T02:44:18;16.80;99.90
60234;DHT22;49514;43.538;-5.708;2022-09-27T02:47:34;16.80;99.90
60234;DHT22;49514;43.538;-5.708;2022-09-27T02:56:23;16.90;99.90
60234;DHT22;49514;43.538;-5.708;2022-09-27T02:59:34;16.90;99.90
60234;DHT22;49514;43.538;-5.708;2022-09-27T03:05:36;16.90;99.90
60234;DHT22;49514;43.538;-5.708;2022-09-27T03:08:04;16.90;99.90
60234;DHT22;49514;43.538;-5.708;2022-09-27T03:10:30;16.90;99.90
60234;DHT22;49514;43.538;-5.708;2022-09-27T03:12:57;16.80;99.90
60234;DHT22;49514;43.538;-5.708;2022-09-27T03:15:24;16.70;99.90
60234;DHT22;49514;43.538;-5.708;2022-09-27T03:18:00;16.70;99.90
60234;DHT22;49514;43.538;-5.708;2022-09-27T03:20:38;16.60;99.90
60234;DHT22;49514;43.538;-5.708;2022-09-27T03:23:10;16.60;99.90
60234;DHT22;49514;43.538;-5.708;2022-09-27T03:25:37;16.60;99.90
60234;DHT22;49514;43.538;-5.708;2022-09-27T03:28:03;16.60;99.90
60234;DHT22;49514;43.538;-5.708;2022-09-27T03:30:31;16.60;99.90
60234;DHT22;49514;43.538;-5.708;2022-09-27T03:32:58;16.60;99.90
60234;DHT22;49514;43.538;-5.708;2022-09-27T03:35:54;16.60;99.90
60234;DHT22;49514;43.538;-5.708;2022-09-27T03:38:20;16.70;99.90
60234;DHT22;49514;43.538;-5.708;2022-09-27T03:40:47;16.80;99.90
60234;DHT22;49514;43.538;-5.708;2022-09-27T03:43:14;16.90;99.90
60234;DHT22;49514;43.538;-5.708;2022-09-27T03:45:42;16.90;99.90
60234;DHT22;49514;43.538;-5.708;2022-09-27T03:48:11;17.00;99.90
60234;DHT22;49514;43.538;-5.708;2022-09-27T03:50:37;17.00;99.90
60234;DHT22;49514;43.538;-5.708;2022-09-27T03:53:04;17.10;99.90
60234;DHT22;49514;43.538;-5.708;2022-09-27T03:55:31;17.10;99.90
60234;DHT22;49514;43.538;-5.708;2022-09-27T03:57:58;17.00;99.90
60234;DHT22;49514;43.538;-5.708;2022-09-27T04:00:25;17.00;99.90
60234;DHT22;49514;43.538;-5.708;2022-09-27T04:02:51;17.00;99.90
60234;DHT22;49514;43.538;-5.708;2022-09-27T04:05:26;17.10;99.90
60234;DHT22;49514;43.538;-5.708;2022-09-27T04:08:00;17.10;99.90
60234;DHT22;49514;43.538;-5.708;2022-09-27T04:10:30;17.10;99.90
60234;DHT22;49514;43.538;-5.708;2022-09-27T04:12:56;17.20;99.90
60234;DHT22;49514;43.538;-5.708;2022-09-27T04:15:26;17.20;99.90
60234;DHT22;49514;43.538;-5.708;2022-09-27T04:18:11;17.20;99.90
60234;DHT22;49514;43.538;-5.708;2022-09-27T04:21:04;17.20;99.90
60234;DHT22;49514;43.538;-5.708;2022-09-27T04:23:32;17.20;99.90
60234;DHT22;49514;43.538;-5.708;2022-09-27T04:26:00;17.20;99.90
60234;DHT22;49514;43.538;-5.708;2022-09-27T04:28:59;17.20;99.90
60234;DHT22;49514;43.538;-5.708;2022-09-27T04:31:26;17.20;99.90
60234;DHT22;49514;43.538;-5.708;2022-09-27T04:34:04;17.30;99.90
60234;DHT22;49514;43.538;-5.708;2022-09-27T04:36:33;17.30;99.90
60234;DHT22;49514;43.538;-5.708;2022-09-27T04:39:26;17.20;99.90
60234;DHT22;49514;43.538;-5.708;2022-09-27T04:41:52;17.20;99.90
60234;DHT22;49514;43.538;-5.708;2022-09-27T04:44:20;17.10;99.90
60234;DHT22;49514;43.538;-5.708;2022-09-27T04:46:49;17.10;99.90
60234;DHT22;49514;43.538;-5.708;2022-09-27T04:49:16;17.00;99.90
60234;DHT22;49514;43.538;-5.708;2022-09-27T04:51:43;17.00;99.90
60234;DHT22;49514;43.538;-5.708;2022-09-27T04:54:09;16.90;99.90
60234;DHT22;49514;43.538;-5.708;2022-09-27T04:56:44;16.90;99.90
60234;DHT22;49514;43.538;-5.708;2022-09-27T04:59:10;16.90;99.90
60234;DHT22;49514;43.538;-5.708;2022-09-27T05:01:41;16.90;99.90
60234;DHT22;49514;43.538;-5.708;2022-09-27T05:04:36;16.90;99.90
60234;DHT22;49514;43.538;-5.708;2022-09-27T05:07:04;16.90;99.90
60234;DHT22;49514;43.538;-5.708;2022-09-27T05:09:39;16.90;99.90
60234;DHT22;49514;43.538;-5.708;2022-09-27T05:12:06;17.00;99.90
60234;DHT22;49514;43.538;-5.708;2022-09-27T05:14:44;17.10;99.90
60234;DHT22;49514;43.538;-5.708;2022-09-27T05:17:31;17.10;99.90
60234;DHT22;49514;43.538;-5.708;2022-09-27T05:20:30;17.20;99.90
60234;DHT22;49514;43.538;-5.708;2022-09-27T05:23:17;17.20;99.90
60234;DHT22;49514;43.538;-5.708;2022-09-27T05:25:44;17.30;99.90
60234;DHT22;49514;43.538;-5.708;2022-09-27T05:28:11;17.30;99.90
60234;DHT22;49514;43.538;-5.708;2022-09-27T05:30:38;17.30;99.90
60234;DHT22;49514;43.538;-5.708;2022-09-27T05:33:13;17.30;99.90
60234;DHT22;49514;43.538;-5.708;2022-09-27T05:35:42;17.30;99.90
60234;DHT22;49514;43.538;-5.708;2022-09-27T05:38:10;17.30;99.90
60234;DHT22;49514;43.538;-5.708;2022-09-27T05:40:40;17.20;99.90
60234;DHT22;49514;43.538;-5.708;2022-09-27T05:43:10;17.20;99.90
60234;DHT22;49514;43.538;-5.708;2022-09-27T05:45:37;17.20;99.90
60234;DHT22;49514;43.538;-5.708;2022-09-27T05:58:02;17.10;99.90
60234;DHT22;49514;43.538;-5.708;2022-09-27T06:00:38;17.20;99.90
60234;DHT22;49514;43.538;-5.708;2022-09-27T06:03:17;17.20;99.90
60234;DHT22;49514;43.538;-5.708;2022-09-27T06:06:22;17.20;99.90
60234;DHT22;49514;43.538;-5.708;2022-09-27T06:08:53;17.20;99.90
60234;DHT22;49514;43.538;-5.708;2022-09-27T06:11:21;17.10;99.90
60234;DHT22;49514;43.538;-5.708;2022-09-27T06:13:49;17.20;99.90
60234;DHT22;49514;43.538;-5.708;2022-09-27T06:16:16;17.20;99.90
60234;DHT22;49514;43.538;-5.708;2022-09-27T06:18:44;17.10;99.90
60234;DHT22;49514;43.538;-5.708;2022-09-27T06:21:12;17.20;99.90
60234;DHT22;49514;43.538;-5.708;2022-09-27T06:23:40;17.20;99.90
60234;DHT22;49514;43.538;-5.708;2022-09-27T06:26:18;17.20;99.90
60234;DHT22;49514;43.538;-5.708;2022-09-27T06:29:13;17.20;99.90
60234;DHT22;49514;43.538;-5.708;2022-09-27T06:31:46;17.20;99.90
60234;DHT22;49514;43.538;-5.708;2022-09-27T06:34:24;17.20;99.90
60234;DHT22;49514;43.538;-5.708;2022-09-27T06:36:51;17.30;99.90
60234;DHT22;49514;43.538;-5.708;2022-09-27T06:39:19;17.30;99.90
60234;DHT22;49514;43.538;-5.708;2022-09-27T06:42:01;17.30;99.90
60234;DHT22;49514;43.538;-5.708;2022-09-27T06:44:46;17.40;99.90
60234;DHT22;49514;43.538;-5.708;2022-09-27T06:47:41;17.40;99.90
60234;DHT22;49514;43.538;-5.708;2022-09-27T06:52:47;17.50;99.90
60234;DHT22;49514;43.538;-5.708;2022-09-27T06:55:15;17.50;99.90
60234;DHT22;49514;43.538;-5.708;2022-09-27T06:57:42;17.50;99.90
60234;DHT22;49514;43.538;-5.708;2022-09-27T07:00:27;17.50;99.90
60234;DHT22;49514;43.538;-5.708;2022-09-27T07:03:21;17.50;99.90
60234;DHT22;49514;43.538;-5.708;2022-09-27T07:06:18;17.50;99.90
60234;DHT22;49514;43.538;-5.708;2022-09-27T07:08:58;17.50;99.90
60234;DHT22;49514;43.538;-5.708;2022-09-27T07:11:25;17.60;99.90
60234;DHT22;49514;43.538;-5.708;2022-09-27T07:13:52;17.60;99.90
60234;DHT22;49514;43.538;-5.708;2022-09-27T07:16:19;17.60;99.90
60234;DHT22;49514;43.538;-5.708;2022-09-27T07:18:47;17.60;99.90
60234;DHT22;49514;43.538;-5.708;2022-09-27T07:21:14;17.50;99.90
60234;DHT22;49514;43.538;-5.708;2022-09-27T07:23:42;17.50;99.90
60234;DHT22;49514;43.538;-5.708;2022-09-27T07:26:11;17.50;99.90
60234;DHT22;49514;43.538;-5.708;2022-09-27T07:28:38;17.50;99.90
60234;DHT22;49514;43.538;-5.708;2022-09-27T07:31:07;17.50;99.90
60234;DHT22;49514;43.538;-5.708;2022-09-27T07:33:34;17.50;99.90
60234;DHT22;49514;43.538;-5.708;2022-09-27T07:36:09;17.60;99.90
60234;DHT22;49514;43.538;-5.708;2022-09-27T07:38:39;17.60;99.90
60234;DHT22;49514;43.538;-5.708;2022-09-27T07:41:11;17.60;99.90
60234;DHT22;49514;43.538;-5.708;2022-09-27T07:43:40;17.60;99.90
60234;DHT22;49514;43.538;-5.708;2022-09-27T07:46:09;17.70;99.90
60234;DHT22;49514;43.538;-5.708;2022-09-27T07:48:56;17.70;99.90
60234;DHT22;49514;43.538;-5.708;2022-09-27T07:51:53;17.90;99.90
60234;DHT22;49514;43.538;-5.708;2022-09-27T07:54:45;18.00;99.90
60234;DHT22;49514;43.538;-5.708;2022-09-27T07:57:47;18.20;99.90
60234;DHT22;49514;43.538;-5.708;2022-09-27T08:00:17;18.30;99.90
60234;DHT22;49514;43.538;-5.708;2022-09-27T08:02:47;18.40;99.90
60234;DHT22;49514;43.538;-5.708;2022-09-27T08:05:14;18.50;99.90
60234;DHT22;49514;43.538;-5.708;2022-09-27T08:07:42;18.50;99.90
60234;DHT22;49514;43.538;-5.708;2022-09-27T08:10:08;18.60;99.90
60234;DHT22;49514;43.538;-5.708;2022-09-27T08:12:37;18.70;99.90
60234;DHT22;49514;43.538;-5.708;2022-09-27T08:15:04;18.80;99.90
60234;DHT22;49514;43.538;-5.708;2022-09-27T08:17:31;18.80;99.90
60234;DHT22;49514;43.538;-5.708;2022-09-27T08:20:08;18.90;99.90
60234;DHT22;49514;43.538;-5.708;2022-09-27T08:22:40;19.00;99.90
60234;DHT22;49514;43.538;-5.708;2022-09-27T08:25:20;19.00;99.90
60234;DHT22;49514;43.538;-5.708;2022-09-27T08:28:04;19.00;99.90
60234;DHT22;49514;43.538;-5.708;2022-09-27T08:30:37;19.10;99.90
60234;DHT22;49514;43.538;-5.708;2022-09-27T08:33:04;19.10;99.90
60234;DHT22;49514;43.538;-5.708;2022-09-27T08:35:31;19.20;99.90
60234;DHT22;49514;43.538;-5.708;2022-09-27T08:38:00;19.10;99.90
60234;DHT22;49514;43.538;-5.708;2022-09-27T08:40:37;19.20;99.90
60234;DHT22;49514;43.538;-5.708;2022-09-27T08:48:28;19.00;99.90
60234;DHT22;49514;43.538;-5.708;2022-09-27T08:50:56;18.90;99.90
60234;DHT22;49514;43.538;-5.708;2022-09-27T08:53:54;18.90;99.90
60234;DHT22;49514;43.538;-5.708;2022-09-27T08:56:23;19.00;99.90
60234;DHT22;49514;43.538;-5.708;2022-09-27T08:59:10;18.90;99.90
60234;DHT22;49514;43.538;-5.708;2022-09-27T09:01:38;19.00;99.90
60234;DHT22;49514;43.538;-5.708;2022-09-27T09:04:17;19.00;99.90
60234;DHT22;49514;43.538;-5.708;2022-09-27T09:16:00;19.10;99.90
60234;DHT22;49514;43.538;-5.708;2022-09-27T09:18:59;19.00;99.90
60234;DHT22;49514;43.538;-5.708;2022-09-27T09:30:28;19.20;99.90
60234;DHT22;49514;43.538;-5.708;2022-09-27T09:36:00;19.80;99.90
60234;DHT22;49514;43.538;-5.708;2022-09-27T09:38:52;19.90;99.90
60234;DHT22;49514;43.538;-5.708;2022-09-27T09:44:23;20.50;99.90
60234;DHT22;49514;43.538;-5.708;2022-09-27T09:46:54;20.60;99.90
60234;DHT22;49514;43.538;-5.708;2022-09-27T09:49:29;20.70;99.90
60234;DHT22;49514;43.538;-5.708;2022-09-27T09:52:06;20.60;99.90
60234;DHT22;49514;43.538;-5.708;2022-09-27T10:00:13;20.60;99.90
60234;DHT22;49514;43.538;-5.708;2022-09-27T10:02:46;20.60;99.90
60234;DHT22;49514;43.538;-5.708;2022-09-27T10:05:21;20.50;99.90
60234;DHT22;49514;43.538;-5.708;2022-09-27T10:07:58;20.50;99.90
60234;DHT22;49514;43.538;-5.708;2022-09-27T10:10:26;20.50;99.90
60234;DHT22;49514;43.538;-5.708;2022-09-27T10:13:25;20.40;99.90
60234;DHT22;49514;43.538;-5.708;2022-09-27T10:16:03;20.20;99.90
60234;DHT22;49514;43.538;-5.708;2022-09-27T10:18:35;20.20;99.90
60234;DHT22;49514;43.538;-5.708;2022-09-27T10:21:24;20.20;99.90
60234;DHT22;49514;43.538;-5.708;2022-09-27T10:24:15;20.30;99.90
60234;DHT22;49514;43.538;-5.708;2022-09-27T10:27:06;20.50;99.90
60234;DHT22;49514;43.538;-5.708;2022-09-27T10:29:36;20.70;99.90
60234;DHT22;49514;43.538;-5.708;2022-09-27T10:32:20;20.70;99.90
60234;DHT22;49514;43.538;-5.708;2022-09-27T10:48:19;21.90;99.90
60234;DHT22;49514;43.538;-5.708;2022-09-27T10:51:01;21.80;99.90
60234;DHT22;49514;43.538;-5.708;2022-09-27T10:53:44;21.90;99.90
60234;DHT22;49514;43.538;-5.708;2022-09-27T10:56:22;22.10;99.90
60234;DHT22;49514;43.538;-5.708;2022-09-27T10:58:50;22.10;99.90
60234;DHT22;49514;43.538;-5.708;2022-09-27T11:01:19;22.10;99.90
60234;DHT22;49514;43.538;-5.708;2022-09-27T11:04:38;22.20;99.90
60234;DHT22;49514;43.538;-5.708;2022-09-27T11:07:18;22.30;99.90
60234;DHT22;49514;43.538;-5.708;2022-09-27T11:09:58;22.30;99.90
60234;DHT22;49514;43.538;-5.708;2022-09-27T11:12:33;22.30;99.90
60234;DHT22;49514;43.538;-5.708;2022-09-27T11:15:05;22.30;99.90
60234;DHT22;49514;43.538;-5.708;2022-09-27T11:17:42;22.30;99.90
60234;DHT22;49514;43.538;-5.708;2022-09-27T11:20:35;22.20;99.90
60234;DHT22;49514;43.538;-5.708;2022-09-27T11:26:15;22.10;99.90
60234;DHT22;49514;43.538;-5.708;2022-09-27T11:32:23;22.40;99.90
60234;DHT22;49514;43.538;-5.708;2022-09-27T11:45:28;22.50;99.90
60234;DHT22;49514;43.538;-5.708;2022-09-27T12:10:41;22.20;99.90
60234;DHT22;49514;43.538;-5.708;2022-09-27T12:13:13;22.20;99.90
60234;DHT22;49514;43.538;-5.708;2022-09-27T12:15:46;22.20;99.90
60234;DHT22;49514;43.538;-5.708;2022-09-27T12:20:48;22.70;99.90
60234;DHT22;49514;43.538;-5.708;2022-09-27T12:23:33;23.30;99.90
60234;DHT22;49514;43.538;-5.708;2022-09-27T12:26:36;23.90;99.90
60234;DHT22;49514;43.538;-5.708;2022-09-27T12:29:24;25.50;97.50
60234;DHT22;49514;43.538;-5.708;2022-09-27T12:32:03;26.20;93.80
60234;DHT22;49514;43.538;-5.708;2022-09-27T13:02:13;32.80;69.00
60234;DHT22;49514;43.538;-5.708;2022-09-27T13:07:25;35.30;63.10
60234;DHT22;49514;43.538;-5.708;2022-09-27T13:12:46;36.10;58.60
60234;DHT22;49514;43.538;-5.708;2022-09-27T13:22:57;36.20;57.70
60234;DHT22;49514;43.538;-5.708;2022-09-27T13:30:57;38.10;56.00
60234;DHT22;49514;43.538;-5.708;2022-09-27T13:38:31;39.80;52.80
60234;DHT22;49514;43.538;-5.708;2022-09-27T13:41:17;40.50;52.30
60234;DHT22;49514;43.538;-5.708;2022-09-27T13:46:36;41.70;50.30
60234;DHT22;49514;43.538;-5.708;2022-09-27T13:49:18;41.40;48.80
60234;DHT22;49514;43.538;-5.708;2022-09-27T13:52:18;41.90;51.10
60234;DHT22;49514;43.538;-5.708;2022-09-27T13:54:57;43.10;50.00
60234;DHT22;49514;43.538;-5.708;2022-09-27T14:00:09;42.40;47.90
60234;DHT22;49514;43.538;-5.708;2022-09-27T14:05:35;43.00;48.40
60234;DHT22;49514;43.538;-5.708;2022-09-27T14:08:04;42.50;47.70
60234;DHT22;49514;43.538;-5.708;2022-09-27T14:10:32;42.70;48.00
60234;DHT22;49514;43.538;-5.708;2022-09-27T14:13:03;41.80;47.80
60234;DHT22;49514;43.538;-5.708;2022-09-27T14:20:43;41.10;47.30
60234;DHT22;49514;43.538;-5.708;2022-09-27T14:25:57;39.60;48.60
60234;DHT22;49514;43.538;-5.708;2022-09-27T14:33:44;36.90;80.60
60234;DHT22;49514;43.538;-5.708;2022-09-27T14:36:19;36.10;53.00
60234;DHT22;49514;43.538;-5.708;2022-09-27T14:41:37;34.20;83.80
60234;DHT22;49514;43.538;-5.708;2022-09-27T14:44:25;33.30;56.20
60234;DHT22;49514;43.538;-5.708;2022-09-27T14:49:19;32.30;57.60
60234;DHT22;49514;43.538;-5.708;2022-09-27T14:51:50;32.50;57.00
60234;DHT22;49514;43.538;-5.708;2022-09-27T14:54:22;33.00;56.50
60234;DHT22;49514;43.538;-5.708;2022-09-27T14:56:52;33.20;56.40
60234;DHT22;49514;43.538;-5.708;2022-09-27T15:01:53;33.40;84.30
60234;DHT22;49514;43.538;-5.708;2022-09-27T15:04:20;33.90;56.00
60234;DHT22;49514;43.538;-5.708;2022-09-27T15:09:14;34.50;73.90
60234;DHT22;49514;43.538;-5.708;2022-09-27T15:11:42;35.80;55.40
60234;DHT22;49514;43.538;-5.708;2022-09-27T15:14:13;35.80;53.40
60234;DHT22;49514;43.538;-5.708;2022-09-27T15:16:40;36.00;54.30
60234;DHT22;49514;43.538;-5.708;2022-09-27T15:19:26;37.30;52.70
60234;DHT22;49514;43.538;-5.708;2022-09-27T15:21:54;37.40;52.00
60234;DHT22;49514;43.538;-5.708;2022-09-27T15:24:43;37.50;52.00
60234;DHT22;49514;43.538;-5.708;2022-09-27T15:27:14;37.30;52.40
60234;DHT22;49514;43.538;-5.708;2022-09-27T15:29:46;37.90;52.00
60234;DHT22;49514;43.538;-5.708;2022-09-27T15:32:15;37.90;51.50
60234;DHT22;49514;43.538;-5.708;2022-09-27T15:34:43;38.00;51.70
60234;DHT22;49514;43.538;-5.708;2022-09-27T15:37:23;37.90;51.10
60234;DHT22;49514;43.538;-5.708;2022-09-27T15:39:51;38.30;51.20
60234;DHT22;49514;43.538;-5.708;2022-09-27T15:42:18;37.80;51.40
60234;DHT22;49514;43.538;-5.708;2022-09-27T15:44:46;38.10;51.00
60234;DHT22;49514;43.538;-5.708;2022-09-27T15:52:42;34.90;53.70
60234;DHT22;49514;43.538;-5.708;2022-09-27T15:55:12;34.40;54.50
60234;DHT22;49514;43.538;-5.708;2022-09-27T15:57:40;34.40;54.50
60234;DHT22;49514;43.538;-5.708;2022-09-27T16:00:11;33.90;55.00
60234;DHT22;49514;43.538;-5.708;2022-09-27T16:05:08;32.20;80.40
60234;DHT22;49514;43.538;-5.708;2022-09-27T16:07:35;31.60;57.90
60234;DHT22;49514;43.538;-5.708;2022-09-27T16:10:08;32.30;58.00
60234;DHT22;49514;43.538;-5.708;2022-09-27T16:12:39;33.40;56.70
60234;DHT22;49514;43.538;-5.708;2022-09-27T16:15:06;34.00;55.70
60234;DHT22;49514;43.538;-5.708;2022-09-27T16:17:33;33.80;55.80
60234;DHT22;49514;43.538;-5.708;2022-09-27T16:20:06;33.00;55.40
60234;DHT22;49514;43.538;-5.708;2022-09-27T16:22:34;31.70;57.80
60234;DHT22;49514;43.538;-5.708;2022-09-27T16:25:01;30.50;59.20
60234;DHT22;49514;43.538;-5.708;2022-09-27T16:27:28;29.80;60.60
60234;DHT22;49514;43.538;-5.708;2022-09-27T16:29:55;29.20;61.20
60234;DHT22;49514;43.538;-5.708;2022-09-27T16:32:23;28.60;61.90
60234;DHT22;49514;43.538;-5.708;2022-09-27T16:34:50;28.20;63.00
60234;DHT22;49514;43.538;-5.708;2022-09-27T16:37:17;27.80;63.30
60234;DHT22;49514;43.538;-5.708;2022-09-27T16:39:44;27.30;64.10
60234;DHT22;49514;43.538;-5.708;2022-09-27T16:42:11;26.80;65.60
60234;DHT22;49514;43.538;-5.708;2022-09-27T16:44:39;26.70;65.60
60234;DHT22;49514;43.538;-5.708;2022-09-27T16:47:07;26.40;66.50
60234;DHT22;49514;43.538;-5.708;2022-09-27T16:49:34;26.40;66.50
60234;DHT22;49514;43.538;-5.708;2022-09-27T16:52:19;27.00;65.80
60234;DHT22;49514;43.538;-5.708;2022-09-27T16:54:46;28.00;64.50
60234;DHT22;49514;43.538;-5.708;2022-09-27T16:57:13;29.20;62.70
60234;DHT22;49514;43.538;-5.708;2022-09-27T16:59:40;29.20;61.50
60234;DHT22;49514;43.538;-5.708;2022-09-27T17:02:08;28.90;61.30
60234;DHT22;49514;43.538;-5.708;2022-09-27T17:04:35;28.40;62.20
60234;DHT22;49514;43.538;-5.708;2022-09-27T17:07:01;27.80;63.50
60234;DHT22;49514;43.538;-5.708;2022-09-27T17:09:28;27.00;64.30
60234;DHT22;49514;43.538;-5.708;2022-09-27T17:11:55;26.50;66.30
60234;DHT22;49514;43.538;-5.708;2022-09-27T17:14:22;26.10;67.30
60234;DHT22;49514;43.538;-5.708;2022-09-27T17:16:49;25.60;68.20
60234;DHT22;49514;43.538;-5.708;2022-09-27T17:19:17;25.10;70.40
60234;DHT22;49514;43.538;-5.708;2022-09-27T17:21:45;24.80;71.50
60234;DHT22;49514;43.538;-5.708;2022-09-27T17:24:13;24.50;72.60
60234;DHT22;49514;43.538;-5.708;2022-09-27T17:26:41;24.40;73.40
60234;DHT22;49514;43.538;-5.708;2022-09-27T17:29:11;24.30;74.30
60234;DHT22;49514;43.538;-5.708;2022-09-27T17:31:40;24.10;76.10
60234;DHT22;49514;43.538;-5.708;2022-09-27T17:34:08;23.90;76.80
60234;DHT22;49514;43.538;-5.708;2022-09-27T17:36:39;23.70;79.00
60234;DHT22;49514;43.538;-5.708;2022-09-27T17:39:13;23.70;78.70
60234;DHT22;49514;43.538;-5.708;2022-09-27T17:41:41;23.60;77.10
60234;DHT22;49514;43.538;-5.708;2022-09-27T17:44:12;23.60;77.00
60234;DHT22;49514;43.538;-5.708;2022-09-27T17:46:40;23.60;81.30
60234;DHT22;49514;43.538;-5.708;2022-09-27T17:49:08;23.40;83.10
60234;DHT22;49514;43.538;-5.708;2022-09-27T17:51:53;23.40;82.60
60234;DHT22;49514;43.538;-5.708;2022-09-27T17:54:22;23.20;85.40
60234;DHT22;49514;43.538;-5.708;2022-09-27T17:56:49;23.10;86.70
60234;DHT22;49514;43.538;-5.708;2022-09-27T17:59:16;23.00;86.50
60234;DHT22;49514;43.538;-5.708;2022-09-27T18:01:45;23.00;85.60
60234;DHT22;49514;43.538;-5.708;2022-09-27T18:04:15;22.90;88.20
60234;DHT22;49514;43.538;-5.708;2022-09-27T18:06:43;22.70;90.60
60234;DHT22;49514;43.538;-5.708;2022-09-27T18:09:13;22.70;87.10
60234;DHT22;49514;43.538;-5.708;2022-09-27T18:11:40;22.60;91.00
60234;DHT22;49514;43.538;-5.708;2022-09-27T18:14:07;22.40;91.70
60234;DHT22;49514;43.538;-5.708;2022-09-27T18:16:38;22.40;91.20
60234;DHT22;49514;43.538;-5.708;2022-09-27T18:19:09;22.30;91.70
60234;DHT22;49514;43.538;-5.708;2022-09-27T18:21:35;22.20;91.70
60234;DHT22;49514;43.538;-5.708;2022-09-27T18:24:02;22.20;91.30
60234;DHT22;49514;43.538;-5.708;2022-09-27T18:26:32;22.20;92.10
60234;DHT22;49514;43.538;-5.708;2022-09-27T18:29:07;22.10;92.30
60234;DHT22;49514;43.538;-5.708;2022-09-27T18:31:35;22.00;92.50
60234;DHT22;49514;43.538;-5.708;2022-09-27T18:34:02;21.90;92.60
60234;DHT22;49514;43.538;-5.708;2022-09-27T18:36:29;21.90;93.20
60234;DHT22;49514;43.538;-5.708;2022-09-27T18:38:58;21.80;92.60
60234;DHT22;49514;43.538;-5.708;2022-09-27T18:41:30;21.80;93.40
60234;DHT22;49514;43.538;-5.708;2022-09-27T18:43:59;21.70;93.20
60234;DHT22;49514;43.538;-5.708;2022-09-27T18:46:35;21.80;92.90
60234;DHT22;49514;43.538;-5.708;2022-09-27T18:49:04;21.70;94.60
60234;DHT22;49514;43.538;-5.708;2022-09-27T18:51:32;21.70;94.90
60234;DHT22;49514;43.538;-5.708;2022-09-27T18:54:01;21.70;94.60
60234;DHT22;49514;43.538;-5.708;2022-09-27T18:56:29;21.60;95.00
60234;DHT22;49514;43.538;-5.708;2022-09-27T18:58:56;21.60;96.10
60234;DHT22;49514;43.538;-5.708;2022-09-27T19:01:23;21.50;94.80
60234;DHT22;49514;43.538;-5.708;2022-09-27T19:03:55;21.60;96.20
60234;DHT22;49514;43.538;-5.708;2022-09-27T19:06:22;21.50;95.30
60234;DHT22;49514;43.538;-5.708;2022-09-27T19:08:56;21.60;95.00
60234;DHT22;49514;43.538;-5.708;2022-09-27T19:11:25;21.60;95.80
60234;DHT22;49514;43.538;-5.708;2022-09-27T19:13:55;21.60;96.10
60234;DHT22;49514;43.538;-5.708;2022-09-27T19:16:24;21.50;96.40
60234;DHT22;49514;43.538;-5.708;2022-09-27T19:18:51;21.40;97.60
60234;DHT22;49514;43.538;-5.708;2022-09-27T19:21:25;21.40;97.60
60234;DHT22;49514;43.538;-5.708;2022-09-27T19:23:52;21.40;97.50
60234;DHT22;49514;43.538;-5.708;2022-09-27T19:26:22;21.30;97.00
60234;DHT22;49514;43.538;-5.708;2022-09-27T19:28:50;21.30;97.10
60234;DHT22;49514;43.538;-5.708;2022-09-27T19:31:22;21.30;98.50
60234;DHT22;49514;43.538;-5.708;2022-09-27T19:33:50;21.20;98.60
60234;DHT22;49514;43.538;-5.708;2022-09-27T19:36:18;21.20;98.50
60234;DHT22;49514;43.538;-5.708;2022-09-27T19:38:46;21.20;98.70
60234;DHT22;49514;43.538;-5.708;2022-09-27T19:41:15;21.10;99.90
60234;DHT22;49514;43.538;-5.708;2022-09-27T19:43:42;21.00;99.90